Weather at Alejandro Velasco Astete International Airport

Public forecast

Using degrees Celsius for public forecast. Weather courtesy of forecast.io.

Current aviation weather report (METAR) for Alejandro Velasco Astete International Airport

Report is more than 6 hours old.

2022/11/14 15:30 (retrieved 2 years ago)

SPZO 141530Z 18003KT 9999 SCT050 20/00 Q1030 NOSIG BIRD HAZARD RWY 10/28

Aviation forecast (TAF) for Alejandro Velasco Astete International Airport

Forecast is more than 12 hours old.

2023/02/22 18:33 (retrieved 1 year ago)

TAF SPZO 221705Z 2218/2318 28005KT 9999 SCT046 SCT080 TX21/2220Z TN10/2311Z TEMPO 2218/2221 36012KT RA SCT046TCU BKN080